This is the latest recevied weather packets stored in our database for station/object VK3ABC-13. If no packets are shown the sender has not sent any weather packets the latest 10 day(s).
| Time | Temp. | Humidity | Pressure | Rain* | Wind** | Luminosity | Snow |
|---|---|---|---|---|---|---|---|
| 1777522214 | 24.44° C | 50% | 1021.8 hPa | 0 mm | - | 515 W/m² | - |
| 1777517414 | 23.33° C | 51% | 1022.4 hPa | 0 mm | - | 262 W/m² | - |
| 1777516512 | 23.33° C | 50% | 1022.5 hPa | 0 mm | - | 281 W/m² | - |
| 1777513513 | 23.89° C | 50% | 1023.2 hPa | 0 mm | - | 415 W/m² | - |
| 1777511713 | 23.33° C | 53% | 1023.5 hPa | 0 mm | - | 397 W/m² | - |
| 1777509914 | 22.78° C | 55% | 1023.7 hPa | 0 mm | - | 390 W/m² | - |
| 1777508414 | 20.56° C | 65% | 1023.9 hPa | 0 mm | - | 482 W/m² | - |
| 1777506614 | 17.22° C | 89% | 1024.2 hPa | 0 mm | - | 311 W/m² | - |
| 1777505414 | 16.11° C | 93% | 1024.4 hPa | 0 mm | - | 336 W/m² | - |
| 1777505112 | 15.56° C | 94% | 1024.4 hPa | 0 mm | - | 339 W/m² | - |
| 1777500312 | 9.44° C | 93% | 1024.2 hPa | 0 mm | - | 37 W/m² | - |
| 1777499712 | 9.44° C | 92% | 1024.1 hPa | 0 mm | - | 63 W/m² | - |
| 1777498813 | 9.44° C | 92% | 1024 hPa | 0 mm | - | 25 W/m² | - |
| 1777497913 | 8.89° C | 92% | 1023.9 hPa | 0 mm | - | 19 W/m² | - |
| 1777496415 | 8.89° C | 92% | 1023.7 hPa | 0 mm | - | 5 W/m² | - |
| 1777485912 | 10.56° C | 91% | 1023.3 hPa | 0.25 mm | - | 0 W/m² | - |
| 1777483513 | 11.11° C | 91% | 1023.1 hPa | 0 mm | - | 0 W/m² | - |
| 1777482015 | 11.11° C | 91% | 1023.2 hPa | 0 mm | - | 0 W/m² | - |
| 1777475712 | 12.22° C | 89% | 1023.9 hPa | 0 mm | - | 0 W/m² | - |
| 1777468813 | 13.89° C | 89% | 1024.5 hPa | 0 mm | - | 0 W/m² | - |
| 1777467615 | 14.44° C | 89% | 1024.6 hPa | 0 mm | - | 0 W/m² | - |
| 1777464613 | 15° C | 87% | 1024.6 hPa | 0 mm | - | 0 W/m² | - |
| 1777464312 | 15° C | 87% | 1024.6 hPa | 0 mm | - | 0 W/m² | - |
| 1777458912 | 16.11° C | 83% | 1024.5 hPa | 0 mm | - | 0 W/m² | - |
| 1777457414 | 16.67° C | 82% | 1024.4 hPa | 0 mm | - | 0 W/m² | - |
* Rain latest hour (hover to see other rain measurements)
** Current wind speed in m/s (hover to see current wind gust speed)